sensor_id;sensor_type;location;lat;lon;timestamp;pressure;altitude;pressure_sealevel;temperature;humidity
73600;BME280;61877;48.246;9.220;2023-10-08T00:01:09;95131.25;;;6.71;93.09
73600;BME280;61877;48.246;9.220;2023-10-08T00:03:34;95137.94;;;6.69;92.98
73600;BME280;61877;48.246;9.220;2023-10-08T00:06:02;95134.75;;;6.67;93.55
73600;BME280;61877;48.246;9.220;2023-10-08T00:08:29;95140.69;;;6.64;93.72
73600;BME280;61877;48.246;9.220;2023-10-08T00:10:56;95137.50;;;6.62;94.37
73600;BME280;61877;48.246;9.220;2023-10-08T00:13:21;95135.13;;;6.60;93.83
73600;BME280;61877;48.246;9.220;2023-10-08T00:15:46;95139.91;;;6.63;93.68
73600;BME280;61877;48.246;9.220;2023-10-08T00:18:12;95140.25;;;6.57;93.97
73600;BME280;61877;48.246;9.220;2023-10-08T00:20:38;95143.41;;;6.58;94.51
73600;BME280;61877;48.246;9.220;2023-10-08T00:23:03;95137.84;;;6.55;94.57
73600;BME280;61877;48.246;9.220;2023-10-08T00:25:31;95141.91;;;6.52;94.72
73600;BME280;61877;48.246;9.220;2023-10-08T00:27:57;95136.28;;;6.54;94.96
73600;BME280;61877;48.246;9.220;2023-10-08T00:30:22;95135.69;;;6.57;95.13
73600;BME280;61877;48.246;9.220;2023-10-08T00:32:47;95129.06;;;6.54;95.46
73600;BME280;61877;48.246;9.220;2023-10-08T00:35:13;95131.53;;;6.51;94.69
73600;BME280;61877;48.246;9.220;2023-10-08T00:37:38;95132.56;;;6.50;94.60
73600;BME280;61877;48.246;9.220;2023-10-08T00:40:05;95128.34;;;6.49;94.76
73600;BME280;61877;48.246;9.220;2023-10-08T00:42:32;95122.50;;;6.47;94.45
73600;BME280;61877;48.246;9.220;2023-10-08T00:44:57;95125.81;;;6.39;95.02
73600;BME280;61877;48.246;9.220;2023-10-08T00:47:23;95126.53;;;6.44;95.38
73600;BME280;61877;48.246;9.220;2023-10-08T00:49:48;95110.03;;;6.42;94.59
73600;BME280;61877;48.246;9.220;2023-10-08T00:52:14;95109.75;;;6.44;95.01
73600;BME280;61877;48.246;9.220;2023-10-08T00:54:41;95109.53;;;6.40;94.47
73600;BME280;61877;48.246;9.220;2023-10-08T00:57:07;95110.56;;;6.44;94.72
73600;BME280;61877;48.246;9.220;2023-10-08T00:59:34;95107.38;;;6.42;94.63
73600;BME280;61877;48.246;9.220;2023-10-08T01:01:59;95104.41;;;6.44;94.84
73600;BME280;61877;48.246;9.220;2023-10-08T01:04:25;95100.19;;;6.43;94.66
73600;BME280;61877;48.246;9.220;2023-10-08T01:06:52;95104.19;;;6.40;94.65
73600;BME280;61877;48.246;9.220;2023-10-08T01:09:18;95094.63;;;6.39;94.47
73600;BME280;61877;48.246;9.220;2023-10-08T01:11:43;95101.00;;;6.38;94.52
73600;BME280;61877;48.246;9.220;2023-10-08T01:14:09;95095.19;;;6.36;95.15
73600;BME280;61877;48.246;9.220;2023-10-08T01:16:36;95096.25;;;6.35;95.16
73600;BME280;61877;48.246;9.220;2023-10-08T01:19:01;95092.31;;;6.33;95.47
73600;BME280;61877;48.246;9.220;2023-10-08T01:21:31;95093.88;;;6.34;95.65
73600;BME280;61877;48.246;9.220;2023-10-08T01:23:57;95096.31;;;6.30;95.62
73600;BME280;61877;48.246;9.220;2023-10-08T01:26:23;95094.47;;;6.31;95.58
73600;BME280;61877;48.246;9.220;2023-10-08T01:28:48;95091.78;;;6.31;95.55
73600;BME280;61877;48.246;9.220;2023-10-08T01:31:13;95090.47;;;6.28;95.55
73600;BME280;61877;48.246;9.220;2023-10-08T01:33:39;95086.19;;;6.32;95.28
73600;BME280;61877;48.246;9.220;2023-10-08T01:36:05;95081.19;;;6.26;95.01
73600;BME280;61877;48.246;9.220;2023-10-08T01:38:31;95079.91;;;6.23;95.54
73600;BME280;61877;48.246;9.220;2023-10-08T01:40:57;95082.56;;;6.23;95.64
73600;BME280;61877;48.246;9.220;2023-10-08T01:43:23;95082.56;;;6.23;95.09
73600;BME280;61877;48.246;9.220;2023-10-08T01:45:48;95082.56;;;6.23;95.01
73600;BME280;61877;48.246;9.220;2023-10-08T01:48:14;95085.31;;;6.18;95.21
73600;BME280;61877;48.246;9.220;2023-10-08T01:50:40;95080.53;;;6.15;95.48
73600;BME280;61877;48.246;9.220;2023-10-08T01:53:06;95078.44;;;6.12;95.47
73600;BME280;61877;48.246;9.220;2023-10-08T01:55:32;95086.72;;;6.11;96.05
73600;BME280;61877;48.246;9.220;2023-10-08T01:57:59;95079.81;;;6.10;95.71
73600;BME280;61877;48.246;9.220;2023-10-08T02:00:24;95077.44;;;6.08;95.64
73600;BME280;61877;48.246;9.220;2023-10-08T02:02:50;95073.75;;;6.04;96.26
73600;BME280;61877;48.246;9.220;2023-10-08T02:05:16;95073.22;;;6.02;96.06
73600;BME280;61877;48.246;9.220;2023-10-08T02:07:41;95072.16;;;6.03;96.56
73600;BME280;61877;48.246;9.220;2023-10-08T02:10:08;95070.56;;;6.02;96.52
73600;BME280;61877;48.246;9.220;2023-10-08T02:12:33;95066.31;;;6.01;96.47
73600;BME280;61877;48.246;9.220;2023-10-08T02:15:00;95075.13;;;6.02;96.18
73600;BME280;61877;48.246;9.220;2023-10-08T02:17:25;95063.94;;;6.00;96.83
73600;BME280;61877;48.246;9.220;2023-10-08T02:19:50;95072.72;;;6.00;96.53
73600;BME280;61877;48.246;9.220;2023-10-08T02:22:16;95066.84;;;6.03;96.71
73600;BME280;61877;48.246;9.220;2023-10-08T02:24:41;95067.13;;;6.02;96.77
73600;BME280;61877;48.246;9.220;2023-10-08T02:27:06;95067.91;;;6.02;96.57
73600;BME280;61877;48.246;9.220;2023-10-08T02:29:33;95068.47;;;5.99;97.01
73600;BME280;61877;48.246;9.220;2023-10-08T02:31:59;95056.53;;;5.97;97.04
73600;BME280;61877;48.246;9.220;2023-10-08T02:34:25;95061.34;;;5.95;96.48
73600;BME280;61877;48.246;9.220;2023-10-08T02:36:51;95054.41;;;5.94;97.27
73600;BME280;61877;48.246;9.220;2023-10-08T02:39:16;95058.69;;;5.95;97.31
73600;BME280;61877;48.246;9.220;2023-10-08T02:41:42;95058.97;;;5.93;97.45
73600;BME280;61877;48.246;9.220;2023-10-08T02:44:07;95056.53;;;5.97;97.30
73600;BME280;61877;48.246;9.220;2023-10-08T02:46:33;95059.44;;;5.95;97.04
73600;BME280;61877;48.246;9.220;2023-10-08T02:48:59;95053.06;;;5.96;96.95
73600;BME280;61877;48.246;9.220;2023-10-08T02:51:25;95048.03;;;5.95;97.16
73600;BME280;61877;48.246;9.220;2023-10-08T02:53:50;95051.47;;;5.95;97.01
73600;BME280;61877;48.246;9.220;2023-10-08T02:56:15;95049.59;;;5.96;96.80
73600;BME280;61877;48.246;9.220;2023-10-08T02:58:41;95048.84;;;5.90;97.00
73600;BME280;61877;48.246;9.220;2023-10-08T03:01:07;95054.75;;;5.87;97.14
73600;BME280;61877;48.246;9.220;2023-10-08T03:03:32;95051.03;;;5.88;97.42
73600;BME280;61877;48.246;9.220;2023-10-08T03:05:59;95044.09;;;5.87;97.19
73600;BME280;61877;48.246;9.220;2023-10-08T03:08:24;95050.53;;;5.86;97.70
73600;BME280;61877;48.246;9.220;2023-10-08T03:10:51;95038.28;;;5.85;98.16
73600;BME280;61877;48.246;9.220;2023-10-08T03:13:17;95044.97;;;5.83;97.93
73600;BME280;61877;48.246;9.220;2023-10-08T03:15:42;95046.31;;;5.80;97.59
73600;BME280;61877;48.246;9.220;2023-10-08T03:18:08;95042.03;;;5.79;98.33
73600;BME280;61877;48.246;9.220;2023-10-08T03:20:34;95038.56;;;5.84;97.89
73600;BME280;61877;48.246;9.220;2023-10-08T03:23:01;95036.97;;;5.83;97.80
73600;BME280;61877;48.246;9.220;2023-10-08T03:25:26;95042.56;;;5.81;98.17
73600;BME280;61877;48.246;9.220;2023-10-08T03:27:52;95042.03;;;5.79;98.28
73600;BME280;61877;48.246;9.220;2023-10-08T03:30:17;95050.84;;;5.80;98.52
73600;BME280;61877;48.246;9.220;2023-10-08T03:32:43;95046.03;;;5.82;97.96
73600;BME280;61877;48.246;9.220;2023-10-08T03:35:08;95042.31;;;5.83;98.31
73600;BME280;61877;48.246;9.220;2023-10-08T03:37:34;95048.44;;;5.83;97.91
73600;BME280;61877;48.246;9.220;2023-10-08T03:40:00;95039.06;;;5.86;98.86
73600;BME280;61877;48.246;9.220;2023-10-08T03:42:26;95052.09;;;5.87;98.65
73600;BME280;61877;48.246;9.220;2023-10-08T03:44:52;95051.03;;;5.88;98.65
73600;BME280;61877;48.246;9.220;2023-10-08T03:47:18;95044.56;;;5.94;98.83
73600;BME280;61877;48.246;9.220;2023-10-08T03:49:43;95044.78;;;5.98;98.17
73600;BME280;61877;48.246;9.220;2023-10-08T03:52:08;95042.94;;;5.98;98.42
73600;BME280;61877;48.246;9.220;2023-10-08T03:54:34;95037.59;;;5.98;97.90
73600;BME280;61877;48.246;9.220;2023-10-08T03:57:01;95033.03;;;5.99;98.00
73600;BME280;61877;48.246;9.220;2023-10-08T03:59:27;95029.31;;;6.00;97.74
73600;BME280;61877;48.246;9.220;2023-10-08T04:01:52;95028.53;;;5.99;98.32
73600;BME280;61877;48.246;9.220;2023-10-08T04:04:17;95026.38;;;6.01;98.47
73600;BME280;61877;48.246;9.220;2023-10-08T04:06:43;95032.28;;;5.98;98.53
73600;BME280;61877;48.246;9.220;2023-10-08T04:09:08;95032.00;;;6.00;98.19
73600;BME280;61877;48.246;9.220;2023-10-08T04:11:34;95032.28;;;5.98;98.32
73600;BME280;61877;48.246;9.220;2023-10-08T04:14:01;95026.72;;;5.95;98.31
73600;BME280;61877;48.246;9.220;2023-10-08T04:16:26;95033.91;;;5.94;98.64
73600;BME280;61877;48.246;9.220;2023-10-08T04:18:51;95029.97;;;5.92;98.47
73600;BME280;61877;48.246;9.220;2023-10-08T04:21:18;95028.06;;;5.92;98.66
73600;BME280;61877;48.246;9.220;2023-10-08T04:23:43;95025.13;;;5.94;98.45
73600;BME280;61877;48.246;9.220;2023-10-08T04:26:08;95027.56;;;5.90;98.51
73600;BME280;61877;48.246;9.220;2023-10-08T04:28:34;95025.19;;;5.89;98.77
73600;BME280;61877;48.246;9.220;2023-10-08T04:31:01;95032.41;;;5.88;98.89
73600;BME280;61877;48.246;9.220;2023-10-08T04:33:27;95025.47;;;5.87;98.87
73600;BME280;61877;48.246;9.220;2023-10-08T04:35:52;95028.41;;;5.86;98.76
73600;BME280;61877;48.246;9.220;2023-10-08T04:38:19;95027.13;;;5.83;99.26
73600;BME280;61877;48.246;9.220;2023-10-08T04:40:45;95022.88;;;5.82;99.38
73600;BME280;61877;48.246;9.220;2023-10-08T04:43:11;95024.72;;;5.82;99.15
73600;BME280;61877;48.246;9.220;2023-10-08T04:45:36;95020.72;;;5.84;99.51
73600;BME280;61877;48.246;9.220;2023-10-08T04:48:04;95023.38;;;5.84;99.12
73600;BME280;61877;48.246;9.220;2023-10-08T04:50:29;95017.53;;;5.82;99.10
73600;BME280;61877;48.246;9.220;2023-10-08T04:52:55;95021.25;;;5.81;99.06
73600;BME280;61877;48.246;9.220;2023-10-08T04:55:20;95024.22;;;5.80;99.28
73600;BME280;61877;48.246;9.220;2023-10-08T04:57:45;95021.31;;;5.76;99.39
73600;BME280;61877;48.246;9.220;2023-10-08T05:00:11;95032.25;;;5.75;99.29
73600;BME280;61877;48.246;9.220;2023-10-08T05:02:37;95025.63;;;5.72;99.36
73600;BME280;61877;48.246;9.220;2023-10-08T05:05:04;95026.13;;;5.74;99.49
73600;BME280;61877;48.246;9.220;2023-10-08T05:07:30;95028.28;;;5.72;99.63
73600;BME280;61877;48.246;9.220;2023-10-08T05:09:55;95031.44;;;5.74;99.85
73600;BME280;61877;48.246;9.220;2023-10-08T05:12:20;95030.94;;;5.72;99.86
73600;BME280;61877;48.246;9.220;2023-10-08T05:14:46;95033.59;;;5.72;99.56
73600;BME280;61877;48.246;9.220;2023-10-08T05:17:11;95030.44;;;5.70;99.42
73600;BME280;61877;48.246;9.220;2023-10-08T05:19:37;95033.16;;;5.65;99.56
73600;BME280;61877;48.246;9.220;2023-10-08T05:22:03;95033.72;;;5.62;99.82
73600;BME280;61877;48.246;9.220;2023-10-08T05:24:29;95032.13;;;5.61;100.00
73600;BME280;61877;48.246;9.220;2023-10-08T05:26:55;95028.66;;;5.61;99.99
73600;BME280;61877;48.246;9.220;2023-10-08T05:29:20;95030.84;;;5.59;100.00
73600;BME280;61877;48.246;9.220;2023-10-08T05:31:46;95030.03;;;5.58;100.00
73600;BME280;61877;48.246;9.220;2023-10-08T05:34:11;95023.06;;;5.62;100.00
73600;BME280;61877;48.246;9.220;2023-10-08T05:36:37;95028.38;;;5.62;100.00
73600;BME280;61877;48.246;9.220;2023-10-08T05:39:03;95025.25;;;5.60;100.00
73600;BME280;61877;48.246;9.220;2023-10-08T05:41:29;95029.75;;;5.60;100.00
73600;BME280;61877;48.246;9.220;2023-10-08T05:43:54;95026.00;;;5.61;100.00
73600;BME280;61877;48.246;9.220;2023-10-08T05:46:20;95032.13;;;5.61;100.00
73600;BME280;61877;48.246;9.220;2023-10-08T05:48:45;95033.16;;;5.65;100.00
73600;BME280;61877;48.246;9.220;2023-10-08T05:51:10;95040.88;;;5.67;100.00
73600;BME280;61877;48.246;9.220;2023-10-08T05:53:36;95040.88;;;5.67;100.00
73600;BME280;61877;48.246;9.220;2023-10-08T05:56:06;95041.63;;;5.67;100.00
73600;BME280;61877;48.246;9.220;2023-10-08T05:58:31;95045.28;;;5.76;99.72
73600;BME280;61877;48.246;9.220;2023-10-08T06:00:57;95051.63;;;5.80;99.71
73600;BME280;61877;48.246;9.220;2023-10-08T06:03:22;95049.72;;;5.86;99.75
73600;BME280;61877;48.246;9.220;2023-10-08T06:05:47;95052.31;;;5.91;99.94
73600;BME280;61877;48.246;9.220;2023-10-08T06:08:13;95051.91;;;6.02;99.60
73600;BME280;61877;48.246;9.220;2023-10-08T06:10:38;95057.19;;;6.07;99.16
73600;BME280;61877;48.246;9.220;2023-10-08T06:13:07;95060.31;;;6.14;98.95
73600;BME280;61877;48.246;9.220;2023-10-08T06:15:35;95064.69;;;6.24;99.19
73600;BME280;61877;48.246;9.220;2023-10-08T06:18:01;95067.53;;;6.32;97.87
73600;BME280;61877;48.246;9.220;2023-10-08T06:20:26;95068.69;;;6.45;98.16
73600;BME280;61877;48.246;9.220;2023-10-08T06:22:55;95067.78;;;6.54;97.01
73600;BME280;61877;48.246;9.220;2023-10-08T06:25:20;95070.59;;;6.63;96.58
73600;BME280;61877;48.246;9.220;2023-10-08T06:27:46;95071.72;;;6.76;96.45
73600;BME280;61877;48.246;9.220;2023-10-08T06:30:13;95075.03;;;6.86;95.55
73600;BME280;61877;48.246;9.220;2023-10-08T06:32:38;95072.69;;;6.98;94.99
73600;BME280;61877;48.246;9.220;2023-10-08T06:35:05;95079.63;;;7.18;95.18
73600;BME280;61877;48.246;9.220;2023-10-08T06:37:30;95082.13;;;7.41;94.73
73600;BME280;61877;48.246;9.220;2023-10-08T06:39:56;95085.78;;;7.64;93.91
73600;BME280;61877;48.246;9.220;2023-10-08T06:42:21;95086.88;;;7.90;92.01
73600;BME280;61877;48.246;9.220;2023-10-08T06:44:47;95087.69;;;8.04;90.67
73600;BME280;61877;48.246;9.220;2023-10-08T06:50:50;95093.66;;;8.42;87.42
73600;BME280;61877;48.246;9.220;2023-10-08T06:53:17;95092.75;;;8.46;86.46
73600;BME280;61877;48.246;9.220;2023-10-08T06:55:43;95101.66;;;8.55;87.22
73600;BME280;61877;48.246;9.220;2023-10-08T06:58:09;95104.47;;;8.72;86.45
73600;BME280;61877;48.246;9.220;2023-10-08T07:00:34;95105.56;;;8.85;87.18
73600;BME280;61877;48.246;9.220;2023-10-08T07:03:00;95106.31;;;8.99;87.46
73600;BME280;61877;48.246;9.220;2023-10-08T07:05:25;95111.44;;;9.09;85.90
73600;BME280;61877;48.246;9.220;2023-10-08T07:07:52;95109.81;;;9.22;84.47
73600;BME280;61877;48.246;9.220;2023-10-08T07:10:18;95111.75;;;9.30;84.21
73600;BME280;61877;48.246;9.220;2023-10-08T07:12:43;95108.72;;;9.45;82.39
73600;BME280;61877;48.246;9.220;2023-10-08T07:15:09;95112.72;;;9.56;82.13
73600;BME280;61877;48.246;9.220;2023-10-08T07:17:34;95107.47;;;9.73;82.68
73600;BME280;61877;48.246;9.220;2023-10-08T07:20:00;95106.59;;;9.86;83.51
73600;BME280;61877;48.246;9.220;2023-10-08T07:22:25;95106.03;;;9.97;83.05
73600;BME280;61877;48.246;9.220;2023-10-08T07:24:52;95103.78;;;10.13;82.28
73600;BME280;61877;48.246;9.220;2023-10-08T07:27:18;95102.44;;;10.32;80.51
73600;BME280;61877;48.246;9.220;2023-10-08T07:29:43;95101.66;;;10.40;79.33
73600;BME280;61877;48.246;9.220;2023-10-08T07:32:08;95106.44;;;10.52;79.47
73600;BME280;61877;48.246;9.220;2023-10-08T07:34:34;95106.78;;;10.59;78.89
73600;BME280;61877;48.246;9.220;2023-10-08T07:36:59;95104.41;;;10.75;77.88
73600;BME280;61877;48.246;9.220;2023-10-08T07:39:24;95107.28;;;10.87;77.81
73600;BME280;61877;48.246;9.220;2023-10-08T07:41:52;95100.50;;;10.98;77.56
73600;BME280;61877;48.246;9.220;2023-10-08T07:44:17;95090.41;;;11.20;77.00
73600;BME280;61877;48.246;9.220;2023-10-08T07:46:43;95094.34;;;11.40;76.83
73600;BME280;61877;48.246;9.220;2023-10-08T07:49:08;95097.97;;;11.52;76.24
73600;BME280;61877;48.246;9.220;2023-10-08T07:51:34;95101.44;;;11.61;75.46
73600;BME280;61877;48.246;9.220;2023-10-08T07:53:59;95091.81;;;11.69;75.13
73600;BME280;61877;48.246;9.220;2023-10-08T07:56:25;95091.63;;;11.83;74.12
73600;BME280;61877;48.246;9.220;2023-10-08T07:58:52;95086.06;;;11.96;73.74
73600;BME280;61877;48.246;9.220;2023-10-08T08:01:18;95088.91;;;12.00;73.14
73600;BME280;61877;48.246;9.220;2023-10-08T08:03:46;95087.16;;;12.04;73.06
73600;BME280;61877;48.246;9.220;2023-10-08T08:06:12;95093.94;;;12.01;72.77
73600;BME280;61877;48.246;9.220;2023-10-08T08:08:38;95091.25;;;12.10;73.18
73600;BME280;61877;48.246;9.220;2023-10-08T08:11:04;95084.69;;;12.28;72.33
73600;BME280;61877;48.246;9.220;2023-10-08T08:13:30;95086.25;;;12.29;71.56
73600;BME280;61877;48.246;9.220;2023-10-08T08:16:03;95089.16;;;12.53;71.66
73600;BME280;61877;48.246;9.220;2023-10-08T08:18:28;95077.88;;;12.59;71.45
73600;BME280;61877;48.246;9.220;2023-10-08T08:20:55;95080.34;;;12.73;71.92
73600;BME280;61877;48.246;9.220;2023-10-08T08:23:20;95088.41;;;12.73;72.58
73600;BME280;61877;48.246;9.220;2023-10-08T08:25:46;95094.50;;;12.82;71.44
73600;BME280;61877;48.246;9.220;2023-10-08T08:28:11;95087.56;;;12.81;70.97
73600;BME280;61877;48.246;9.220;2023-10-08T08:30:37;95087.38;;;12.86;71.86
73600;BME280;61877;48.246;9.220;2023-10-08T08:33:06;95081.56;;;13.25;71.21
73600;BME280;61877;48.246;9.220;2023-10-08T08:35:44;95084.31;;;13.58;68.98
73600;BME280;61877;48.246;9.220;2023-10-08T08:40:39;95079.91;;;14.67;66.11
73600;BME280;61877;48.246;9.220;2023-10-08T08:43:05;95074.22;;;15.08;64.43
73600;BME280;61877;48.246;9.220;2023-10-08T08:45:35;95080.00;;;15.34;65.31
73600;BME280;61877;48.246;9.220;2023-10-08T08:48:01;95077.78;;;15.64;63.64
73600;BME280;61877;48.246;9.220;2023-10-08T08:50:29;95077.16;;;15.82;64.32
73600;BME280;61877;48.246;9.220;2023-10-08T08:52:55;95081.38;;;15.95;63.05
73600;BME280;61877;48.246;9.220;2023-10-08T08:55:21;95085.25;;;16.10;62.92
73600;BME280;61877;48.246;9.220;2023-10-08T08:57:48;95085.97;;;16.22;63.23
73600;BME280;61877;48.246;9.220;2023-10-08T09:00:15;95089.09;;;16.40;61.48
73600;BME280;61877;48.246;9.220;2023-10-08T09:02:41;95085.03;;;16.46;61.22
73600;BME280;61877;48.246;9.220;2023-10-08T09:05:07;95091.56;;;16.92;61.91
73600;BME280;61877;48.246;9.220;2023-10-08T09:07:35;95089.25;;;17.63;59.00
73600;BME280;61877;48.246;9.220;2023-10-08T09:10:00;95094.31;;;18.02;58.15
73600;BME280;61877;48.246;9.220;2023-10-08T09:12:26;95085.81;;;18.68;57.06
73600;BME280;61877;48.246;9.220;2023-10-08T09:14:51;95083.34;;;19.08;56.84
73600;BME280;61877;48.246;9.220;2023-10-08T09:17:17;95085.44;;;19.45;55.78
73600;BME280;61877;48.246;9.220;2023-10-08T09:19:43;95088.53;;;19.43;54.95
73600;BME280;61877;48.246;9.220;2023-10-08T09:22:09;95088.91;;;19.71;55.60
73600;BME280;61877;48.246;9.220;2023-10-08T09:24:38;95084.81;;;20.21;54.06
73600;BME280;61877;48.246;9.220;2023-10-08T09:27:03;95092.69;;;20.70;54.19
73600;BME280;61877;48.246;9.220;2023-10-08T09:29:29;95084.09;;;21.15;53.76
73600;BME280;61877;48.246;9.220;2023-10-08T09:31:56;95091.41;;;21.61;53.35
73600;BME280;61877;48.246;9.220;2023-10-08T09:34:26;95084.97;;;21.98;51.93
73600;BME280;61877;48.246;9.220;2023-10-08T09:36:52;95085.34;;;22.00;51.24
73600;BME280;61877;48.246;9.220;2023-10-08T09:39:18;95086.72;;;22.69;48.75
73600;BME280;61877;48.246;9.220;2023-10-08T09:41:46;95086.34;;;22.88;44.07
73600;BME280;61877;48.246;9.220;2023-10-08T09:44:12;95091.78;;;23.37;41.70
73600;BME280;61877;48.246;9.220;2023-10-08T09:46:40;95091.25;;;23.91;39.62
73600;BME280;61877;48.246;9.220;2023-10-08T09:49:08;95092.06;;;23.78;34.30
73600;BME280;61877;48.246;9.220;2023-10-08T09:51:37;95091.53;;;24.21;33.76
73600;BME280;61877;48.246;9.220;2023-10-08T09:54:10;95099.03;;;24.17;33.34
73600;BME280;61877;48.246;9.220;2023-10-08T09:56:36;95088.44;;;24.16;32.58
73600;BME280;61877;48.246;9.220;2023-10-08T09:59:03;95094.78;;;24.75;31.70
73600;BME280;61877;48.246;9.220;2023-10-08T10:01:29;95096.56;;;24.99;31.88
73600;BME280;61877;48.246;9.220;2023-10-08T10:03:55;95091.97;;;24.85;30.73
73600;BME280;61877;48.246;9.220;2023-10-08T10:06:22;95102.81;;;25.47;32.23
73600;BME280;61877;48.246;9.220;2023-10-08T10:11:18;95099.72;;;25.82;31.77
73600;BME280;61877;48.246;9.220;2023-10-08T10:13:45;95107.00;;;25.99;29.35
73600;BME280;61877;48.246;9.220;2023-10-08T10:16:21;95102.75;;;26.55;29.64
73600;BME280;61877;48.246;9.220;2023-10-08T10:18:48;95107.59;;;26.17;28.25
73600;BME280;61877;48.246;9.220;2023-10-08T10:21:31;95102.91;;;26.44;28.07
73600;BME280;61877;48.246;9.220;2023-10-08T10:23:57;95104.63;;;26.92;27.30
73600;BME280;61877;48.246;9.220;2023-10-08T10:26:25;95102.63;;;27.19;28.03
73600;BME280;61877;48.246;9.220;2023-10-08T10:29:21;95106.53;;;26.68;27.62
73600;BME280;61877;48.246;9.220;2023-10-08T10:31:49;95107.91;;;26.23;27.12
73600;BME280;61877;48.246;9.220;2023-10-08T10:34:16;95117.56;;;25.67;27.57
73600;BME280;61877;48.246;9.220;2023-10-08T10:36:44;95118.50;;;25.87;27.49
73600;BME280;61877;48.246;9.220;2023-10-08T10:39:10;95122.19;;;26.44;27.18
73600;BME280;61877;48.246;9.220;2023-10-08T10:41:35;95115.47;;;26.45;26.56
73600;BME280;61877;48.246;9.220;2023-10-08T10:44:01;95110.38;;;26.14;27.21
73600;BME280;61877;48.246;9.220;2023-10-08T10:46:26;95104.25;;;26.03;28.60
73600;BME280;61877;48.246;9.220;2023-10-08T10:48:53;95102.91;;;26.44;27.83
73600;BME280;61877;48.246;9.220;2023-10-08T10:51:19;95108.00;;;26.76;27.70
73600;BME280;61877;48.246;9.220;2023-10-08T10:53:45;95098.50;;;26.20;27.92
73600;BME280;61877;48.246;9.220;2023-10-08T10:56:13;95101.78;;;26.08;27.50
73600;BME280;61877;48.246;9.220;2023-10-08T10:58:41;95104.31;;;25.92;27.88
73600;BME280;61877;48.246;9.220;2023-10-08T11:01:07;95099.78;;;26.12;29.21
73600;BME280;61877;48.246;9.220;2023-10-08T11:03:32;95092.75;;;26.41;27.71
73600;BME280;61877;48.246;9.220;2023-10-08T11:06:00;95090.25;;;26.50;27.74
73600;BME280;61877;48.246;9.220;2023-10-08T11:08:26;95095.97;;;26.36;26.37
73600;BME280;61877;48.246;9.220;2023-10-08T11:10:52;95089.53;;;27.00;26.86
73600;BME280;61877;48.246;9.220;2023-10-08T11:13:19;95089.41;;;26.84;26.86
73600;BME280;61877;48.246;9.220;2023-10-08T11:15:46;95090.66;;;27.29;27.14
73600;BME280;61877;48.246;9.220;2023-10-08T11:18:13;95089.59;;;28.08;26.62
73600;BME280;61877;48.246;9.220;2023-10-08T11:20:39;95091.88;;;27.94;26.32
73600;BME280;61877;48.246;9.220;2023-10-08T11:23:08;95089.25;;;27.63;27.50
73600;BME280;61877;48.246;9.220;2023-10-08T11:25:34;95091.47;;;27.72;27.59
73600;BME280;61877;48.246;9.220;2023-10-08T11:28:00;95090.31;;;27.69;27.27
73600;BME280;61877;48.246;9.220;2023-10-08T11:30:28;95089.41;;;26.84;26.97
73600;BME280;61877;48.246;9.220;2023-10-08T11:32:54;95088.88;;;26.35;27.67
73600;BME280;61877;48.246;9.220;2023-10-08T11:35:19;95087.72;;;26.03;28.23
73600;BME280;61877;48.246;9.220;2023-10-08T11:37:47;95085.44;;;25.94;28.67
73600;BME280;61877;48.246;9.220;2023-10-08T11:40:27;95082.63;;;25.64;29.36
73600;BME280;61877;48.246;9.220;2023-10-08T11:42:52;95085.19;;;25.00;30.61
73600;BME280;61877;48.246;9.220;2023-10-08T11:45:18;95089.09;;;25.47;30.60
73600;BME280;61877;48.246;9.220;2023-10-08T11:47:44;95077.31;;;25.50;30.96
73600;BME280;61877;48.246;9.220;2023-10-08T11:50:11;95075.06;;;25.38;30.23
73600;BME280;61877;48.246;9.220;2023-10-08T11:52:47;95085.50;;;25.06;30.80
73600;BME280;61877;48.246;9.220;2023-10-08T11:55:20;95079.16;;;25.16;31.54
73600;BME280;61877;48.246;9.220;2023-10-08T11:57:51;95076.41;;;25.16;30.64
73600;BME280;61877;48.246;9.220;2023-10-08T12:00:18;95072.16;;;25.08;30.61
73600;BME280;61877;48.246;9.220;2023-10-08T12:02:45;95074.25;;;24.93;30.58
73600;BME280;61877;48.246;9.220;2023-10-08T12:05:12;95072.47;;;24.66;32.40
73600;BME280;61877;48.246;9.220;2023-10-08T12:07:40;95070.84;;;24.79;31.30
73600;BME280;61877;48.246;9.220;2023-10-08T12:10:09;95071.31;;;24.70;30.29
73600;BME280;61877;48.246;9.220;2023-10-08T12:12:36;95067.75;;;24.73;31.30
73600;BME280;61877;48.246;9.220;2023-10-08T12:15:06;95069.41;;;24.53;32.08
73600;BME280;61877;48.246;9.220;2023-10-08T12:17:32;95068.94;;;24.65;31.30
73600;BME280;61877;48.246;9.220;2023-10-08T12:19:58;95066.22;;;24.65;31.99
73600;BME280;61877;48.246;9.220;2023-10-08T12:22:23;95063.13;;;24.53;31.51
73600;BME280;61877;48.246;9.220;2023-10-08T12:24:55;95070.13;;;24.61;31.02
73600;BME280;61877;48.246;9.220;2023-10-08T12:27:21;95059.78;;;24.86;30.13
73600;BME280;61877;48.246;9.220;2023-10-08T12:29:50;95058.69;;;24.76;30.74
73600;BME280;61877;48.246;9.220;2023-10-08T12:32:17;95065.03;;;25.14;30.09
73600;BME280;61877;48.246;9.220;2023-10-08T12:34:46;95058.94;;;24.96;30.06
73600;BME280;61877;48.246;9.220;2023-10-08T12:37:22;95057.41;;;24.91;31.97
73600;BME280;61877;48.246;9.220;2023-10-08T12:39:48;95058.88;;;25.03;31.23
73600;BME280;61877;48.246;9.220;2023-10-08T12:42:15;95054.66;;;24.30;31.93
73600;BME280;61877;48.246;9.220;2023-10-08T12:44:43;95049.75;;;24.65;29.94
73600;BME280;61877;48.246;9.220;2023-10-08T12:47:17;95050.56;;;24.59;30.87
73600;BME280;61877;48.246;9.220;2023-10-08T12:49:43;95060.19;;;24.84;30.05
73600;BME280;61877;48.246;9.220;2023-10-08T12:52:08;95060.59;;;24.83;30.28
73600;BME280;61877;48.246;9.220;2023-10-08T12:54:34;95056.81;;;24.59;30.60
73600;BME280;61877;48.246;9.220;2023-10-08T12:57:00;95051.72;;;24.61;32.16
73600;BME280;61877;48.246;9.220;2023-10-08T12:59:27;95058.72;;;24.66;32.08
73600;BME280;61877;48.246;9.220;2023-10-08T13:01:56;95056.63;;;24.91;31.65
73600;BME280;61877;48.246;9.220;2023-10-08T13:04:23;95059.91;;;24.75;34.56
73600;BME280;61877;48.246;9.220;2023-10-08T13:06:49;95064.63;;;24.68;35.80
73600;BME280;61877;48.246;9.220;2023-10-08T13:09:15;95064.69;;;24.57;36.65